Latest Weather Observations for Lake Macquarie - Cooranbong

IDN60801

Issued at 8:02 am EST Saturday 23 May 2015 (issued every 30 minutes, with the page automatically refreshed every 10 minutes)

About weather observations | Map of weather stations | Latest weather observations for NSW | Other Formats
Station Details ID: 061412 Name: LAKE MACQUARIE AWS Lat: -33.09 Lon: 151.46 Height: 6.0 m
Data from the previous 72 hours. | See also: Recent months at Lake Macquarie - Cooranbong
Date/Time
EST
Temp
°C
App
Temp
°C
Dew
Point
Rel
Hum
%
Delta-T
°C
Wind Press
QNH
hPa
Press
MSL
hPa
Rain
since 9 am
mm
Dir
 
Spd
km/h
Gust
km/h
Spd
kts
Gust
kts
23/08:00am 12.6 10.9 8.3 75 2.1 SW 7 15 4 8 1027.9 1027.9 36.2
23/07:30am 12.3 10.8 8.4 77 1.9 WSW 6 19 3 10 1027.7 1027.7 36.2
23/07:00am 12.1 10.8 9.1 82 1.5 WSW 6 11 3 6 1027.4 1027.4 36.2
23/06:30am 12.0 10.8 9.6 85 1.2 SW 6 13 3 7 1027.1 1027.1 36.2
23/06:00am 11.7 10.4 9.9 89 0.9 SW 7 15 4 8 1026.9 1026.9 36.2
23/05:30am 11.8 10.5 10.0 89 0.9 WSW 7 17 4 9 1026.6 1026.6 36.2
23/05:00am 12.1 11.2 10.5 90 0.8 WSW 6 11 3 6 1026.4 1026.4 36.0
23/04:30am 11.9 10.8 10.5 91 0.7 WSW 7 13 4 7 1026.1 1026.1 36.0
23/04:00am 12.0 11.0 10.4 90 0.8 SW 6 13 3 7 1026.0 1026.0 36.0
23/03:30am 12.2 11.7 10.6 90 0.8 SW 4 9 2 5 1026.1 1026.1 35.8
23/03:00am 12.2 11.1 10.6 90 0.8 WSW 7 15 4 8 1026.1 1026.1 35.8
23/02:30am 12.2 11.1 10.6 90 0.8 WSW 7 17 4 9 1026.1 1026.1 35.6
23/02:00am 12.3 11.2 10.5 89 0.9 SW 7 19 4 10 1026.1 1026.1 35.6
23/01:30am 12.4 11.8 10.3 87 1.1 SW 4 9 2 5 1025.9 1025.9 35.2
23/01:00am 12.6 11.6 10.3 86 1.2 SW 6 13 3 7 1026.0 1026.0 35.2
23/12:30am 12.6 12.0 10.5 87 1.1 SW 4 15 2 8 1025.9 1025.9 35.2
23/12:00am 12.0 10.9 9.9 87 1.1 WSW 6 11 3 6 1025.9 1025.9 35.2
 
Date/Time
EST
Temp
°C
App
Temp
°C
Dew
Point
Rel
Hum
%
Delta-T
°C
Wind Press
QNH
hPa
Press
MSL
hPa
Rain
since 9 am
mm
Dir
 
Spd
km/h
Gust
km/h
Spd
kts
Gust
kts
22/11:30pm 12.3 11.3 10.2 87 1.1 WSW 6 9 3 5 1026.0 1026.0 35.2
22/11:00pm 12.4 12.1 10.1 86 1.2 SSW 2 9 1 5 1026.0 1026.0 35.2
22/10:30pm 12.5 11.5 10.4 87 1.1 WSW 6 15 3 8 1025.7 1025.7 35.2
22/10:00pm 12.6 11.7 10.5 87 1.1 SW 6 11 3 6 1025.2 1025.2 35.2
22/09:30pm 12.6 11.1 10.7 88 1.0 SW 9 20 5 11 1025.4 1025.4 35.2
22/09:00pm 12.7 11.6 10.6 87 1.1 WSW 7 15 4 8 1024.8 1024.8 34.6
22/08:30pm 13.2 12.0 10.2 82 1.6 SW 7 17 4 9 1025.0 1025.0 34.4
22/08:00pm 13.0 11.8 10.2 83 1.4 SW 7 19 4 10 1024.3 1024.3 34.4
22/07:30pm 13.0 11.8 10.4 84 1.3 SW 7 19 4 10 1023.9 1023.9 34.4
22/07:00pm 13.4 12.4 10.4 82 1.6 SW 6 19 3 10 1023.4 1023.4 34.4
22/06:30pm 14.0 12.0 10.0 77 2.1 SW 11 20 6 11 1023.0 1023.0 34.2
22/06:00pm 14.7 13.5 9.7 72 2.6 SSW 6 20 3 11 1022.4 1022.4 34.2
22/05:30pm 14.7 13.4 9.9 73 2.5 SSW 7 17 4 9 1021.8 1021.8 34.2
22/05:00pm 15.6 13.7 9.1 65 3.3 S 9 22 5 12 1021.4 1021.4 34.2
22/04:30pm 15.2 13.5 9.8 70 2.8 SSW 9 26 5 14 1020.8 1020.8 34.2
22/04:00pm 15.2 13.6 10.2 72 2.6 SSW 9 20 5 11 1020.3 1020.3 34.2
22/03:30pm 15.7 14.2 10.5 71 2.7 SW 9 22 5 12 1019.4 1019.4 34.2
22/03:00pm 15.0 13.5 10.6 75 2.3 SW 9 20 5 11 1019.1 1019.1 34.2
22/02:30pm 14.4 13.2 11.7 84 1.4 SW 9 24 5 13 1018.5 1018.5 34.2
22/02:00pm 13.9 13.4 12.5 91 0.8 SW 7 15 4 8 1018.3 1018.3 34.2
22/01:30pm 13.8 12.5 12.5 92 0.7 SSW 11 20 6 11 1018.3 1018.3 34.0
22/01:00pm 14.4 13.7 13.3 93 0.6 SSW 9 24 5 13 1018.0 1018.0 30.2
22/12:30pm 14.2 13.4 12.9 92 0.7 SW 9 24 5 13 1017.3 1017.3 24.0
22/12:00pm 14.1 13.6 12.8 92 0.7 SW 7 20 4 11 1017.3 1017.3 20.2
22/11:30am 14.2 14.0 12.9 92 0.7 SSW 6 19 3 10 1017.4 1017.4 17.4
22/11:00am 13.8 12.9 12.7 93 0.6 SSW 9 24 5 13 1017.3 1017.3 15.8
22/10:30am 13.5 13.4 12.1 91 0.8 SW 4 9 2 5 1017.1 1017.1 7.0
22/10:00am 13.5 12.9 11.6 88 1.0 WSW 6 11 3 6 1016.9 1016.9 3.6
22/09:30am 13.7 12.7 10.9 83 1.5 WSW 7 15 4 8 1016.7 1016.7 1.2
22/09:00am 15.0 13.0 10.2 73 2.5 SW 11 26 6 14 1016.5 1016.5 0.0
22/08:30am 15.1 13.0 9.7 70 2.8 WSW 11 24 6 13 1016.1 1016.1 0.0
22/08:00am 14.8 12.6 9.4 70 2.8 WSW 11 24 6 13 1015.8 1015.8 0.0
22/07:30am 14.9 13.1 9.3 69 2.9 WSW 9 20 5 11 1015.4 1015.4 0.0
22/07:00am 14.9 13.1 9.3 69 2.9 SW 9 19 5 10 1015.3 1015.3 0.0
22/06:30am 14.7 12.8 9.1 69 2.9 WSW 9 19 5 10 1015.3 1015.3 0.0
22/06:00am 14.6 12.7 9.0 69 2.8 SW 9 19 5 10 1015.2 1015.2 0.0
22/05:30am 14.3 12.7 8.7 69 2.8 WSW 7 17 4 9 1015.0 1015.0 0.0
22/05:00am 14.3 12.4 8.9 70 2.7 WSW 9 24 5 13 1015.0 1015.0 0.0
22/04:30am 14.1 12.5 8.7 70 2.7 WSW 7 17 4 9 1015.4 1015.4 0.0
22/04:00am 14.2 12.6 8.8 70 2.7 WSW 7 17 4 9 1015.4 1015.4 0.0
22/03:30am 14.3 12.0 9.1 71 2.6 WSW 11 20 6 11 1015.4 1015.4 0.0
22/03:00am 14.2 12.8 9.4 73 2.5 WSW 7 15 4 8 1015.6 1015.6 0.0
22/02:30am 14.3 13.1 9.5 73 2.5 SW 6 13 3 7 1016.0 1016.0 0.0
22/02:00am 14.6 12.9 9.8 73 2.5 WSW 9 19 5 10 1016.2 1016.2 0.0
22/01:30am 14.8 13.6 10.2 74 2.4 WSW 7 13 4 7 1016.5 1016.5 0.0
22/01:00am 15.1 14.2 10.7 75 2.3 W 6 13 3 7 1016.9 1016.9 0.0
22/12:30am 15.1 14.3 10.9 76 2.2 WSW 6 11 3 6 1016.8 1016.8 0.0
22/12:00am 15.2 14.5 11.4 78 2.0 WSW 6 13 3 7 1016.6 1016.6 0.0
 
Date/Time
EST
Temp
°C
App
Temp
°C
Dew
Point
Rel
Hum
%
Delta-T
°C
Wind Press
QNH
hPa
Press
MSL
hPa
Rain
since 9 am
mm
Dir
 
Spd
km/h
Gust
km/h
Spd
kts
Gust
kts
21/11:30pm 15.4 15.1 11.4 77 2.1 WSW 4 7 2 4 1016.9 1016.9 0.0
21/11:00pm 15.7 15.0 11.3 75 2.4 WSW 6 13 3 7 1017.0 1017.0 0.0
21/10:30pm 15.7 15.5 11.9 78 2.1 SW 4 9 2 5 1017.1 1017.1 0.0
21/10:00pm 15.9 15.7 11.9 77 2.2 SW 4 7 2 4 1017.3 1017.3 0.0
21/09:30pm 16.0 15.9 12.0 77 2.2 WSW 4 6 2 3 1017.5 1017.5 0.0
21/09:00pm 16.0 15.9 12.2 78 2.1 WSW 4 9 2 5 1017.4 1017.4 0.0
21/08:30pm 15.6 15.6 12.4 81 1.8 SW 4 7 2 4 1017.5 1017.5 0.0
21/08:00pm 14.9 15.3 12.6 86 1.3 WSW 2 6 1 3 1017.2 1017.2 0.0
21/07:30pm 15.0 15.8 12.5 85 1.4 CALM 0 0 0 0 1017.6 1017.6 0.0
21/07:00pm 15.2 15.7 12.7 85 1.4 NNW 2 4 1 2 1017.6 1017.6 0.0
21/06:30pm 15.6 16.0 12.5 82 1.7 NW 2 4 1 2 1017.4 1017.4 0.0
21/06:00pm 16.2 16.5 12.2 77 2.2 WSW 2 6 1 3 1017.1 1017.1 0.0
21/05:30pm 17.4 17.3 12.1 71 2.9 WSW 4 6 2 3 1016.8 1016.8 0.0
21/05:00pm 18.0 17.9 12.0 68 3.3 SSW 4 9 2 5 1016.7 1016.7 0.0
21/04:30pm 18.8 18.7 10.9 60 4.3 S 2 9 1 5 1016.7 1016.7 0.0
21/04:00pm 19.5 18.4 10.0 54 5.1 S 6 9 3 5 1016.8 1016.8 0.0
21/03:30pm 20.3 19.3 10.4 53 5.4 SE 6 17 3 9 1016.7 1016.7 0.0
21/03:00pm 21.5 20.0 7.0 39 7.4 WSW 4 6 2 3 1016.5 1016.5 0.0
21/02:30pm 20.9 19.6 9.2 47 6.2 S 6 9 3 5 1016.5 1016.5 0.0
21/02:00pm 21.8 20.3 9.0 44 6.8 W 7 11 4 6 1016.4 1016.4 0.0
21/01:30pm 21.4 20.3 9.9 48 6.2 WSW 6 9 3 5 1016.6 1016.6 0.0
21/01:00pm 21.6 20.5 10.1 48 6.2 W 6 7 3 4 1017.0 1017.0 0.0
21/12:30pm 21.1 19.7 8.7 45 6.5 WSW 6 13 3 7 1017.4 1017.4 0.0
21/12:00pm 20.6 18.7 8.9 47 6.2 WSW 9 17 5 9 1017.8 1017.8 0.0
21/11:30am 21.1 20.0 10.6 51 5.7 WSW 7 13 4 7 1018.4 1018.4 0.0
21/11:00am 20.4 18.8 10.2 52 5.5 SW 9 15 5 8 1018.7 1018.7 0.0
21/10:30am 20.3 19.2 9.8 51 5.6 W 6 11 3 6 1018.9 1018.9 0.0
21/10:00am 20.2 19.7 10.9 55 5.1 W 4 9 2 5 1019.0 1019.0 0.0
21/09:30am 19.3 19.0 11.3 60 4.4 WSW 4 7 2 4 1019.1 1019.1 0.0
21/09:00am 18.8 19.9 13.4 71 3.1 CALM 0 0 0 0 1019.0 1019.0 1.6
21/08:30am 17.1 18.6 14.6 85 1.4 CALM 0 0 0 0 1018.9 1018.9 1.6
21/08:00am 15.2 16.4 13.9 92 0.7 CALM 0 0 0 0 1018.8 1018.8 1.6
21/07:30am 13.6 14.2 12.0 90 0.9 CALM 0 0 0 0 1018.3 1018.3 1.6
21/07:00am 13.8 14.4 12.0 89 1.0 CALM 0 0 0 0 1017.8 1017.8 1.6
21/06:30am 14.3 14.9 11.8 85 1.3 CALM 0 0 0 0 1017.3 1017.3 1.6
21/06:00am 15.2 15.4 11.8 80 1.8 E 2 6 1 3 1017.0 1017.0 1.6
21/05:30am 16.1 15.9 11.9 76 2.3 NW 4 6 2 3 1017.6 1017.6 1.6
21/05:00am 16.0 15.5 12.2 78 2.1 N 6 9 3 5 1017.3 1017.3 1.6
21/04:30am 15.0 15.3 12.3 84 1.5 NNE 2 7 1 4 1016.7 1016.7 1.6
21/04:00am 15.4 15.7 12.2 81 1.7 N 2 6 1 3 1016.3 1016.3 1.6
21/03:30am 16.3 15.9 12.3 77 2.2 NW 6 9 3 5 1016.2 1016.2 1.6
21/03:00am 16.2 15.7 12.2 77 2.2 NNW 6 11 3 6 1016.6 1016.6 1.6
21/02:30am 16.0 15.8 11.8 76 2.3 NNW 4 9 2 5 1017.3 1017.3 1.6
21/02:00am 16.0 15.5 12.0 77 2.2 NW 6 11 3 6 1017.3 1017.3 1.6
21/01:30am 15.4 14.9 12.2 81 1.7 NW 6 11 3 6 1017.1 1017.1 1.6
21/01:00am 14.7 15.1 12.4 86 1.3 N 2 9 1 5 1017.2 1017.2 1.6
21/12:30am 15.2 14.8 12.5 84 1.5 NNW 6 9 3 5 1017.5 1017.5 1.6
21/12:00am 15.1 15.3 13.0 87 1.2 N 4 7 2 4 1017.7 1017.7 1.6
 
Date/Time
EST
Temp
°C
App
Temp
°C
Dew
Point
Rel
Hum
%
Delta-T
°C
Wind Press
QNH
hPa
Press
MSL
hPa
Rain
since 9 am
mm
Dir
 
Spd
km/h
Gust
km/h
Spd
kts
Gust
kts
20/11:30pm 15.6 14.8 12.9 84 1.5 N 9 15 5 8 1017.5 1017.5 1.4
20/11:00pm 16.6 16.3 12.8 78 2.1 NW 6 13 3 7 1018.2 1018.2 0.8
20/10:30pm 18.4 17.6 12.8 70 3.1 WNW 9 19 5 10 1018.4 1018.4 0.4
20/10:00pm 19.7 18.5 15.1 75 2.7 WNW 15 28 8 15 1017.9 1017.9 0.2
20/09:30pm 18.1 19.1 15.4 84 1.6 NNW 4 9 2 5 1017.3 1017.3 0.0
20/09:00pm 18.6 19.6 15.3 81 1.9 N 4 7 2 4 1016.3 1016.3 0.0
20/08:30pm 19.1 20.2 15.6 80 2.1 NNW 4 9 2 5 1016.3 1016.3 0.0
20/08:00pm 18.6 19.6 15.3 81 1.9 NNW 4 7 2 4 1015.9 1015.9 0.0
20/07:30pm 18.6 19.5 15.1 80 2.0 NNW 4 6 2 3 1015.9 1015.9 0.0
20/07:00pm 18.4 19.3 15.1 81 1.9 NNW 4 6 2 3 1015.5 1015.5 0.0
20/06:30pm 19.5 20.8 15.2 76 2.5 NNW 2 4 1 2 1015.0 1015.0 0.0
20/06:00pm 19.6 20.3 15.7 78 2.3 N 6 9 3 5 1015.0 1015.0 0.0
20/05:30pm 19.7 20.4 15.6 77 2.4 N 6 7 3 4 1014.8 1014.8 0.0
20/05:00pm 18.9 19.5 15.2 79 2.2 N 6 7 3 4 1014.7 1014.7 0.0
20/04:30pm 21.1 22.0 15.0 68 3.6 N 4 6 2 3 1014.5 1014.5 0.0
20/04:00pm 22.1 22.5 14.7 63 4.4 NNW 6 11 3 6 1014.3 1014.3 0.0
20/03:30pm 22.1 22.0 14.0 60 4.7 N 7 15 4 8 1014.1 1014.1 0.0
20/03:00pm 23.5 22.9 14.5 57 5.3 N 11 19 6 10 1014.2 1014.2 0.0
20/02:30pm 23.4 22.2 14.1 56 5.5 N 13 22 7 12 1014.1 1014.1 0.0
20/02:00pm 23.8 23.0 13.9 54 5.8 NNW 11 22 6 12 1014.3 1014.3 0.0
20/01:30pm 23.2 21.8 14.5 58 5.1 N 15 24 8 13 1014.1 1014.1 0.0
20/01:00pm 23.4 22.2 14.1 56 5.5 N 13 24 7 13 1014.1 1014.1 0.0
20/12:30pm 23.3 22.5 14.0 56 5.4 NNW 11 24 6 13 1014.9 1014.9 0.0
20/12:00pm 23.0 23.2 14.6 59 5.0 NNW 7 15 4 8 1015.1 1015.1 0.0
20/11:30am 22.2 21.3 13.8 59 4.9 NW 11 19 6 10 1015.7 1015.7 0.0
20/11:00am 21.5 21.4 14.9 66 3.9 NNW 9 15 5 8 1016.3 1016.3 0.0
20/10:30am 19.9 20.0 13.8 68 3.5 NW 6 13 3 7 1016.7 1016.7 0.0
20/10:00am 18.9 18.5 13.1 69 3.3 N 7 11 4 6 1016.7 1016.7 0.0
20/09:30am 18.8 18.0 12.8 68 3.4 NW 9 19 5 10 1017.0 1017.0 0.0
20/09:00am 18.2 17.7 12.6 70 3.1 NW 7 11 4 6 1016.8 1016.8 0.2
20/08:30am 18.3 17.0 12.5 69 3.2 NW 11 20 6 11 1016.5 1016.5 0.2

Other Formats:

Comma delimited format used in spreadsheet applications
http://www.bom.gov.au/fwo/IDN60801/IDN60801.95767.axf

JavaScript Object Notation format (JSON) in row-major order
http://www.bom.gov.au/fwo/IDN60801/IDN60801.95767.json